createdAt,value
2022-07-30T00:02:20.982Z,100434.81
2022-07-30T00:04:49.082Z,100431.94
2022-07-30T00:07:16.825Z,100426.22
2022-07-30T00:09:45.204Z,100435.22
2022-07-30T00:12:12.932Z,100427.50
2022-07-30T00:14:41.376Z,100433.09
2022-07-30T00:17:09.571Z,100428.91
2022-07-30T00:19:37.435Z,100423.06
2022-07-30T00:22:05.297Z,100423.31
2022-07-30T00:24:33.457Z,100433.72
2022-07-30T00:27:01.634Z,100428.53
2022-07-30T00:29:30.140Z,100425.38
2022-07-30T00:31:57.969Z,100424.84
2022-07-30T00:34:26.205Z,100411.94
2022-07-30T00:36:53.946Z,100414.19
2022-07-30T00:39:21.747Z,100421.06
2022-07-30T00:42:03.272Z,100415.88
2022-07-30T00:44:31.649Z,100417.59
2022-07-30T00:47:00.443Z,100424.84
2022-07-30T00:49:28.564Z,100422.56
2022-07-30T00:51:56.901Z,100421.13
2022-07-30T00:54:24.873Z,100429.78
2022-07-30T00:56:52.693Z,100414.16
2022-07-30T00:59:20.551Z,100424.31
2022-07-30T01:01:48.568Z,100420.41
2022-07-30T01:04:16.397Z,100424.97
2022-07-30T01:06:44.277Z,100425.13
2022-07-30T01:09:12.267Z,100414.38
2022-07-30T01:11:42.257Z,100419.69
2022-07-30T01:14:10.718Z,100412.81
2022-07-30T01:16:42.610Z,100406.38
2022-07-30T01:19:40.591Z,100403.66
2022-07-30T01:22:30.190Z,100411.81
2022-07-30T01:25:27.769Z,100404.22
2022-07-30T01:28:12.501Z,100401.16
2022-07-30T01:30:43.187Z,100396.72
2022-07-30T01:33:17.040Z,100405.47
2022-07-30T01:35:48.533Z,100404.56
2022-07-30T01:38:21.907Z,100415.72
2022-07-30T01:40:52.443Z,100402.84
2022-07-30T01:43:23.756Z,100411.25
2022-07-30T01:45:53.484Z,100420.78
2022-07-30T01:48:25.298Z,100411.09
2022-07-30T01:50:56.409Z,100416.13
2022-07-30T01:53:26.911Z,100414.03
2022-07-30T01:55:55.989Z,100424.47
2022-07-30T01:58:29.832Z,100419.63
2022-07-30T02:01:05.147Z,100431.34
2022-07-30T02:03:34.274Z,100431.63
2022-07-30T02:06:14.182Z,100424.94
2022-07-30T02:08:56.574Z,100435.31
2022-07-30T02:11:56.089Z,100439.13
2022-07-30T02:14:30.802Z,100445.06
2022-07-30T02:17:02.282Z,100444.47
2022-07-30T02:19:36.587Z,100444.34
2022-07-30T02:22:12.990Z,100447.25
2022-07-30T02:24:44.272Z,100446.38
2022-07-30T02:27:22.348Z,100445.16
2022-07-30T02:29:52.353Z,100451.81
2022-07-30T02:32:23.377Z,100449.25
2022-07-30T02:35:01.468Z,100448.03
2022-07-30T02:37:42.907Z,100448.91
2022-07-30T02:40:19.324Z,100460.47
2022-07-30T02:42:51.282Z,100457.03
2022-07-30T02:45:25.240Z,100465.25
2022-07-30T02:48:01.176Z,100460.50
2022-07-30T02:50:29.852Z,100470.84
2022-07-30T02:53:01.489Z,100477.63
2022-07-30T02:55:32.440Z,100474.41
2022-07-30T02:58:04.693Z,100483.16
2022-07-30T03:00:34.600Z,100464.97
2022-07-30T03:03:05.830Z,100479.84
2022-07-30T03:05:34.661Z,100469.38
2022-07-30T03:08:04.565Z,100479.00
2022-07-30T03:10:34.440Z,100484.66
2022-07-30T03:13:06.317Z,100481.81
2022-07-30T03:15:39.457Z,100472.94
2022-07-30T03:18:12.272Z,100481.09
2022-07-30T03:20:41.251Z,100480.47
2022-07-30T03:23:12.445Z,100474.31
2022-07-30T03:25:42.347Z,100482.16
2022-07-30T03:28:11.909Z,100486.72
2022-07-30T03:30:40.009Z,100487.09
2022-07-30T03:33:08.510Z,100482.44
2022-07-30T03:35:38.312Z,100487.84
2022-07-30T03:38:07.963Z,100495.13
2022-07-30T03:40:36.018Z,100495.22
2022-07-30T03:43:04.689Z,100492.50
2022-07-30T03:45:47.962Z,100498.44
2022-07-30T03:48:17.844Z,100494.25
2022-07-30T03:50:48.289Z,100496.81
2022-07-30T03:53:17.005Z,100502.25
2022-07-30T03:56:08.298Z,100501.13
2022-07-30T03:58:54.773Z,100499.41
2022-07-30T04:01:27.010Z,100504.34
2022-07-30T04:04:10.532Z,100510.63
2022-07-30T04:06:41.056Z,100510.16
2022-07-30T04:09:13.271Z,100506.53
2022-07-30T04:11:42.064Z,100515.56
2022-07-30T04:14:15.610Z,100516.50
2022-07-30T04:16:51.879Z,100519.34
2022-07-30T04:19:35.674Z,100515.91
2022-07-30T04:22:06.010Z,100522.44
2022-07-30T04:24:36.991Z,100519.94
2022-07-30T04:27:06.642Z,100534.13
2022-07-30T04:29:35.513Z,100528.06
2022-07-30T04:32:03.631Z,100524.75
2022-07-30T04:34:34.937Z,100537.09
2022-07-30T04:37:05.155Z,100531.91
2022-07-30T04:39:33.029Z,100541.50
2022-07-30T04:42:01.420Z,100545.94
2022-07-30T04:44:36.968Z,100543.34
2022-07-30T04:47:24.643Z,100559.25
2022-07-30T04:50:26.261Z,100558.97
2022-07-30T04:52:58.425Z,100549.88
2022-07-30T04:55:34.421Z,100548.78
2022-07-30T04:58:24.829Z,100558.25
2022-07-30T05:01:21.490Z,100560.97
2022-07-30T05:03:52.430Z,100569.34
2022-07-30T05:06:21.817Z,100566.38
2022-07-30T05:08:52.789Z,100562.44
2022-07-30T05:11:22.087Z,100569.34
2022-07-30T05:13:50.231Z,100569.00
2022-07-30T05:16:22.280Z,100570.38
2022-07-30T05:18:51.097Z,100571.84
2022-07-30T05:21:19.196Z,100561.88
2022-07-30T05:23:50.082Z,100566.06
2022-07-30T05:26:27.674Z,100573.56
2022-07-30T05:28:57.902Z,100570.75
2022-07-30T05:31:32.896Z,100569.50
2022-07-30T05:34:03.936Z,100577.25
2022-07-30T05:36:42.760Z,100577.63
2022-07-30T05:39:12.936Z,100573.19
2022-07-30T05:42:03.277Z,100582.53
2022-07-30T05:44:41.488Z,100578.59
2022-07-30T05:47:09.321Z,100588.78
2022-07-30T05:49:39.240Z,100578.44
2022-07-30T05:52:10.649Z,100584.38
2022-07-30T05:54:38.571Z,100578.94
2022-07-30T05:57:29.106Z,100588.28
2022-07-30T05:59:58.599Z,100582.38
2022-07-30T06:02:44.533Z,100581.84
2022-07-30T06:05:15.061Z,100581.59
2022-07-30T06:07:44.307Z,100580.97
2022-07-30T06:10:12.489Z,100592.88
2022-07-30T06:12:42.271Z,100598.78
2022-07-30T06:15:11.072Z,100595.56
2022-07-30T06:17:57.164Z,100597.53
2022-07-30T06:20:40.781Z,100597.38
2022-07-30T06:23:24.342Z,100593.03
2022-07-30T06:26:04.249Z,100601.13
2022-07-30T06:28:39.732Z,100602.19
2022-07-30T06:31:34.350Z,100604.59
2022-07-30T06:34:02.300Z,100600.38
2022-07-30T06:36:35.557Z,100603.63
2022-07-30T06:39:07.478Z,100597.44
2022-07-30T06:41:58.348Z,100599.50
2022-07-30T06:44:43.185Z,100608.47
2022-07-30T06:47:11.689Z,100614.84
2022-07-30T06:49:40.260Z,100611.56
2022-07-30T06:52:12.682Z,100611.16
2022-07-30T06:54:48.384Z,100618.31
2022-07-30T06:57:23.513Z,100610.88
2022-07-30T06:59:56.646Z,100614.31
2022-07-30T07:02:46.167Z,100624.03
2022-07-30T07:05:15.043Z,100620.03
2022-07-30T07:07:58.200Z,100624.06
2022-07-30T07:10:29.578Z,100615.75
2022-07-30T07:13:26.840Z,100622.94
2022-07-30T07:15:55.311Z,100620.75
2022-07-30T07:18:24.561Z,100622.59
2022-07-30T07:21:06.176Z,100619.72
2022-07-30T07:23:41.558Z,100622.88
2022-07-30T07:26:20.144Z,100619.81
2022-07-30T07:28:47.902Z,100620.94
2022-07-30T07:32:05.445Z,100619.59
2022-07-30T07:34:04.199Z,100620.16
2022-07-30T07:36:32.194Z,100628.31
2022-07-30T07:39:00.166Z,100626.00
2022-07-30T07:41:27.929Z,100616.78
2022-07-30T07:43:55.706Z,100618.94
2022-07-30T07:46:33.663Z,100621.22
2022-07-30T07:49:03.172Z,100616.72
2022-07-30T07:51:47.253Z,100618.84
2022-07-30T07:54:22.536Z,100627.44
2022-07-30T07:56:57.275Z,100619.66
2022-07-30T07:59:54.268Z,100616.59
2022-07-30T08:02:27.802Z,100625.91
2022-07-30T08:05:07.847Z,100618.09
2022-07-30T08:07:45.658Z,100616.78
2022-07-30T08:10:16.746Z,100615.59
2022-07-30T08:13:49.349Z,100617.19
2022-07-30T08:16:16.704Z,100616.84
2022-07-30T08:18:56.416Z,100609.06
2022-07-30T08:21:32.150Z,100611.47
2022-07-30T08:23:59.934Z,100620.09
2022-07-30T08:26:27.884Z,100615.31
2022-07-30T08:28:56.151Z,100620.00
2022-07-30T08:31:25.186Z,100622.41
2022-07-30T08:33:52.864Z,100621.25
2022-07-30T08:36:24.129Z,100614.47
2022-07-30T08:38:54.227Z,100612.13
2022-07-30T08:41:23.215Z,100607.69
2022-07-30T08:43:51.632Z,100609.94
2022-07-30T08:46:26.316Z,100599.22
2022-07-30T08:49:07.673Z,100606.94
2022-07-30T08:51:40.013Z,100615.53
2022-07-30T08:54:29.036Z,100609.41
2022-07-30T08:56:59.107Z,100599.13
2022-07-30T08:59:59.410Z,100590.94
2022-07-30T09:02:17.042Z,100608.56
2022-07-30T09:05:07.549Z,100597.88
2022-07-30T09:07:37.184Z,100592.91
2022-07-30T09:10:08.274Z,100595.03
2022-07-30T09:12:42.659Z,100584.94
2022-07-30T09:15:20.309Z,100604.81
2022-07-30T09:17:56.567Z,100607.38
2022-07-30T09:20:29.788Z,100606.34
2022-07-30T09:23:01.606Z,100609.63
2022-07-30T09:25:43.521Z,100616.34
2022-07-30T09:28:34.633Z,100613.59
2022-07-30T09:31:15.250Z,100612.25
2022-07-30T09:34:34.986Z,100602.88
2022-07-30T09:37:19.839Z,100590.94
2022-07-30T09:40:22.759Z,100597.31
2022-07-30T09:43:32.826Z,100598.56
2022-07-30T09:46:13.823Z,100605.25
2022-07-30T09:48:43.192Z,100599.63
2022-07-30T09:51:15.981Z,100598.28
2022-07-30T09:54:00.619Z,100589.72
2022-07-30T09:56:30.987Z,100587.50
2022-07-30T09:59:00.676Z,100600.00
2022-07-30T10:01:49.911Z,100583.75
2022-07-30T10:04:35.129Z,100587.00
2022-07-30T10:07:25.469Z,100597.13
2022-07-30T10:10:00.249Z,100590.44
2022-07-30T10:12:29.853Z,100589.09
2022-07-30T10:15:01.922Z,100583.56
2022-07-30T10:17:36.705Z,100582.19
2022-07-30T10:20:17.993Z,100570.72
2022-07-30T10:23:09.222Z,100568.63
2022-07-30T10:25:49.560Z,100572.38
2022-07-30T10:28:43.415Z,100564.34
2022-07-30T10:31:48.146Z,100574.72
2022-07-30T10:34:00.195Z,100555.09
2022-07-30T10:36:29.318Z,100562.25
2022-07-30T10:38:57.771Z,100572.34
2022-07-30T10:41:48.207Z,100556.38
2022-07-30T10:44:39.114Z,100568.00
2022-07-30T10:47:14.049Z,100563.03
2022-07-30T10:49:43.186Z,100558.38
2022-07-30T10:52:12.678Z,100557.66
2022-07-30T10:54:45.271Z,100561.22
2022-07-30T10:57:41.451Z,100550.41
2022-07-30T11:00:15.653Z,100555.38
2022-07-30T11:03:40.983Z,100552.63
2022-07-30T11:06:16.107Z,100560.00
2022-07-30T11:08:48.163Z,100557.25
2022-07-30T11:11:28.666Z,100560.97
2022-07-30T11:14:10.302Z,100561.81
2022-07-30T11:16:42.081Z,100557.69
2022-07-30T11:19:55.015Z,100553.22
2022-07-30T11:22:51.133Z,100553.03
2022-07-30T11:25:21.794Z,100555.13
2022-07-30T11:27:53.911Z,100541.84
2022-07-30T11:30:23.604Z,100551.63
2022-07-30T11:32:54.566Z,100548.88
2022-07-30T11:35:35.063Z,100538.22
2022-07-30T11:38:18.889Z,100538.53
2022-07-30T11:40:49.625Z,100516.66
2022-07-30T11:43:36.095Z,100519.34
2022-07-30T11:46:28.698Z,100519.63
2022-07-30T11:49:02.629Z,100517.94
2022-07-30T11:51:41.934Z,100524.56
2022-07-30T11:54:10.983Z,100530.72
2022-07-30T11:56:54.038Z,100512.66
2022-07-30T11:59:21.802Z,100533.97
2022-07-30T12:02:00.261Z,100522.47
2022-07-30T12:04:28.279Z,100522.38
2022-07-30T12:06:56.237Z,100515.84
2022-07-30T12:09:29.037Z,100523.53
2022-07-30T12:11:57.589Z,100507.22
2022-07-30T12:14:25.874Z,100515.97
2022-07-30T12:16:54.830Z,100516.53
2022-07-30T12:19:22.916Z,100525.81
2022-07-30T12:21:53.679Z,100514.81
2022-07-30T12:24:26.830Z,100492.25
2022-07-30T12:27:07.898Z,100492.53
2022-07-30T12:29:36.313Z,100497.38
2022-07-30T12:32:04.676Z,100490.94
2022-07-30T12:34:33.756Z,100504.31
2022-07-30T12:37:10.686Z,100500.13
2022-07-30T12:39:40.534Z,100496.91
2022-07-30T12:42:19.357Z,100495.69
2022-07-30T12:44:49.312Z,100488.00
2022-07-30T12:47:26.943Z,100489.16
2022-07-30T12:50:00.704Z,100477.81
2022-07-30T12:52:31.312Z,100480.16
2022-07-30T12:55:09.604Z,100474.66
2022-07-30T12:58:07.105Z,100467.16
2022-07-30T13:00:54.899Z,100459.88
2022-07-30T13:03:39.194Z,100452.91
2022-07-30T13:06:16.438Z,100474.09
2022-07-30T13:08:57.672Z,100461.66
2022-07-30T13:11:48.408Z,100463.81
2022-07-30T13:14:17.407Z,100448.84
2022-07-30T13:16:45.603Z,100452.78
2022-07-30T13:19:13.542Z,100447.53
2022-07-30T13:21:50.034Z,100451.59
2022-07-30T13:24:19.594Z,100454.56
2022-07-30T13:26:47.837Z,100440.59
2022-07-30T13:29:18.471Z,100447.81
2022-07-30T13:31:46.255Z,100451.22
2022-07-30T13:34:14.047Z,100436.78
2022-07-30T13:36:42.945Z,100445.25
2022-07-30T13:39:12.296Z,100445.25
2022-07-30T13:41:41.943Z,100438.03
2022-07-30T13:44:10.730Z,100436.41
2022-07-30T13:46:41.141Z,100435.63
2022-07-30T13:49:10.708Z,100442.63
2022-07-30T13:51:38.900Z,100442.34
2022-07-30T13:54:07.403Z,100442.28
2022-07-30T13:56:40.867Z,100427.41
2022-07-30T13:59:09.908Z,100431.28
2022-07-30T14:01:38.221Z,100436.78
2022-07-30T14:04:06.286Z,100428.53
2022-07-30T14:06:34.104Z,100430.81
2022-07-30T14:09:02.165Z,100422.13
2022-07-30T14:11:31.742Z,100419.53
2022-07-30T14:13:59.812Z,100416.13
2022-07-30T14:16:45.521Z,100418.88
2022-07-30T14:19:23.331Z,100413.38
2022-07-30T14:21:53.949Z,100417.63
2022-07-30T14:24:23.283Z,100411.75
2022-07-30T14:26:55.776Z,100413.06
2022-07-30T14:29:27.037Z,100409.63
2022-07-30T14:31:56.121Z,100416.34
2022-07-30T14:34:24.345Z,100415.03
2022-07-30T14:36:52.742Z,100417.25
2022-07-30T14:39:21.081Z,100411.47
2022-07-30T14:41:52.413Z,100402.75
2022-07-30T14:44:23.995Z,100404.44
2022-07-30T14:46:52.988Z,100402.53
2022-07-30T14:49:24.130Z,100403.75
2022-07-30T14:51:52.485Z,100407.28
2022-07-30T14:54:20.716Z,100400.75
2022-07-30T14:56:49.265Z,100400.53
2022-07-30T14:59:17.039Z,100395.88
2022-07-30T15:01:44.978Z,100398.25
2022-07-30T15:04:13.200Z,100398.34
2022-07-30T15:06:41.732Z,100391.03
2022-07-30T15:09:10.235Z,100393.25
2022-07-30T15:12:04.164Z,100401.19
2022-07-30T15:14:26.965Z,100386.84
2022-07-30T15:17:03.425Z,100389.66
2022-07-30T15:19:32.993Z,100395.25
2022-07-30T15:22:02.447Z,100393.19
2022-07-30T15:24:31.393Z,100388.78
2022-07-30T15:26:59.723Z,100386.97
2022-07-30T15:29:29.938Z,100395.50
2022-07-30T15:32:00.229Z,100392.78
2022-07-30T15:34:28.753Z,100390.47
2022-07-30T15:36:56.580Z,100389.66
2022-07-30T15:39:24.474Z,100388.44
2022-07-30T15:41:57.212Z,100387.19
2022-07-30T15:44:25.367Z,100385.94
2022-07-30T15:46:53.809Z,100382.59
2022-07-30T15:49:24.903Z,100371.34
2022-07-30T15:51:52.870Z,100379.03
2022-07-30T15:54:24.767Z,100380.25
2022-07-30T15:56:54.144Z,100382.59
2022-07-30T15:59:30.504Z,100381.47
2022-07-30T16:01:58.968Z,100378.44
2022-07-30T16:04:31.204Z,100374.41
2022-07-30T16:07:01.477Z,100386.41
2022-07-30T16:09:29.427Z,100382.09
2022-07-30T16:11:58.494Z,100389.47
2022-07-30T16:14:27.160Z,100387.69
2022-07-30T16:16:55.202Z,100386.34
2022-07-30T16:19:23.156Z,100385.84
2022-07-30T16:21:51.205Z,100379.91
2022-07-30T16:24:19.044Z,100380.06
2022-07-30T16:26:47.078Z,100384.25
2022-07-30T16:29:15.016Z,100381.06
2022-07-30T16:31:43.866Z,100386.31
2022-07-30T16:34:12.025Z,100384.34
2022-07-30T16:36:39.898Z,100386.81
2022-07-30T16:39:08.080Z,100387.03
2022-07-30T16:41:36.514Z,100385.97
2022-07-30T16:44:04.954Z,100380.28
2022-07-30T16:46:32.807Z,100376.00
2022-07-30T16:49:00.779Z,100383.03
2022-07-30T16:51:28.561Z,100385.31
2022-07-30T16:53:56.628Z,100391.22
2022-07-30T16:56:24.502Z,100386.13
2022-07-30T16:58:52.317Z,100377.28
2022-07-30T17:01:20.152Z,100390.09
2022-07-30T17:03:48.066Z,100377.50
2022-07-30T17:06:15.989Z,100385.91
2022-07-30T17:08:44.775Z,100383.63
2022-07-30T17:11:45.836Z,100388.41
2022-07-30T17:14:02.078Z,100389.88
2022-07-30T17:16:30.268Z,100382.00
2022-07-30T17:18:58.280Z,100384.47
2022-07-30T17:21:26.437Z,100388.66
2022-07-30T17:23:54.524Z,100389.22
2022-07-30T17:26:22.664Z,100397.00
2022-07-30T17:28:50.443Z,100388.47
2022-07-30T17:31:18.217Z,100394.03
2022-07-30T17:33:46.123Z,100396.50
2022-07-30T17:36:14.091Z,100401.69
2022-07-30T17:38:42.035Z,100403.28
2022-07-30T17:41:13.424Z,100395.41
2022-07-30T17:43:41.426Z,100413.31
2022-07-30T17:46:09.227Z,100416.44
2022-07-30T17:48:37.270Z,100410.84
2022-07-30T17:51:05.393Z,100409.28
2022-07-30T17:53:34.963Z,100409.66
2022-07-30T17:56:04.160Z,100420.53
2022-07-30T17:58:34.059Z,100420.03
2022-07-30T18:01:04.055Z,100422.78
2022-07-30T18:03:32.527Z,100422.31
2022-07-30T18:06:00.911Z,100426.78
2022-07-30T18:08:29.837Z,100417.00
2022-07-30T18:10:57.972Z,100427.13
2022-07-30T18:13:27.425Z,100429.41
2022-07-30T18:15:55.482Z,100426.16
2022-07-30T18:18:23.565Z,100437.16
2022-07-30T18:20:51.383Z,100423.63
2022-07-30T18:23:19.684Z,100438.22
2022-07-30T18:25:53.077Z,100434.31
2022-07-30T18:28:22.509Z,100435.19
2022-07-30T18:30:51.107Z,100436.78
2022-07-30T18:33:19.398Z,100445.94
2022-07-30T18:35:47.248Z,100442.53
2022-07-30T18:38:15.219Z,100450.84
2022-07-30T18:40:43.221Z,100448.28
2022-07-30T18:43:11.267Z,100453.44
2022-07-30T18:45:39.105Z,100460.66
2022-07-30T18:48:07.140Z,100447.84
2022-07-30T18:50:35.203Z,100449.41
2022-07-30T18:53:15.473Z,100465.03
2022-07-30T18:55:44.420Z,100458.03
2022-07-30T18:58:12.390Z,100449.13
2022-07-30T19:00:43.175Z,100458.91
2022-07-30T19:03:17.474Z,100460.44
2022-07-30T19:05:46.652Z,100459.94
2022-07-30T19:08:14.434Z,100461.50
2022-07-30T19:10:42.475Z,100474.00
2022-07-30T19:13:10.339Z,100471.94
2022-07-30T19:15:38.205Z,100480.31
2022-07-30T19:18:05.994Z,100476.84
2022-07-30T19:20:34.034Z,100482.47
2022-07-30T19:23:05.599Z,100489.69
2022-07-30T19:25:35.733Z,100488.31
2022-07-30T19:28:05.511Z,100482.63
2022-07-30T19:30:34.443Z,100498.19
2022-07-30T19:33:12.503Z,100495.78
2022-07-30T19:35:43.373Z,100506.69
2022-07-30T19:38:11.972Z,100516.25
2022-07-30T19:40:42.349Z,100505.69
2022-07-30T19:43:10.609Z,100520.81
2022-07-30T19:45:47.137Z,100514.13
2022-07-30T19:48:28.904Z,100525.25
2022-07-30T19:51:00.690Z,100528.13
2022-07-30T19:53:31.209Z,100531.41
2022-07-30T19:56:03.227Z,100532.25
2022-07-30T19:58:32.378Z,100537.56
2022-07-30T20:01:00.911Z,100537.22
2022-07-30T20:03:31.609Z,100541.84
2022-07-30T20:06:00.782Z,100547.84
2022-07-30T20:08:28.789Z,100553.31
2022-07-30T20:10:57.911Z,100555.03
2022-07-30T20:13:45.214Z,100552.13
2022-07-30T20:16:16.519Z,100559.81
2022-07-30T20:18:46.191Z,100550.06
2022-07-30T20:21:16.351Z,100554.66
2022-07-30T20:23:45.271Z,100553.13
2022-07-30T20:29:02.478Z,100556.00
2022-07-30T20:31:37.262Z,100553.75
2022-07-30T20:34:05.988Z,100555.63
2022-07-30T20:36:44.354Z,100559.84
2022-07-30T20:39:13.497Z,100560.00
2022-07-30T20:41:46.535Z,100563.41
2022-07-30T20:44:23.514Z,100565.59
2022-07-30T20:46:52.659Z,100563.47
2022-07-30T20:52:09.783Z,100566.97
2022-07-30T20:54:43.777Z,100572.19
2022-07-30T20:57:15.575Z,100574.16
2022-07-30T20:59:44.214Z,100564.84
2022-07-30T21:02:15.194Z,100568.63
2022-07-30T21:04:46.463Z,100553.97
2022-07-30T21:07:14.244Z,100572.38
2022-07-30T21:09:49.923Z,100571.38
2022-07-30T21:12:32.976Z,100575.44
2022-07-30T21:15:01.197Z,100575.53
2022-07-30T21:17:29.468Z,100578.72
2022-07-30T21:19:58.109Z,100577.44
2022-07-30T21:22:26.153Z,100588.97
2022-07-30T21:24:54.247Z,100589.88
2022-07-30T21:27:23.003Z,100591.31
2022-07-30T21:29:57.921Z,100592.97
2022-07-30T21:32:26.612Z,100590.69
2022-07-30T21:34:54.671Z,100590.28
2022-07-30T21:37:22.748Z,100588.88
2022-07-30T21:39:50.492Z,100591.88
2022-07-30T21:42:18.191Z,100591.47
2022-07-30T21:44:57.959Z,100594.66
2022-07-30T21:47:25.701Z,100594.97
2022-07-30T21:49:53.836Z,100595.81
2022-07-30T21:52:21.617Z,100600.56
2022-07-30T21:54:49.835Z,100601.56
2022-07-30T21:57:26.407Z,100595.56
2022-07-30T21:59:58.534Z,100604.34
2022-07-30T22:02:26.672Z,100599.19
2022-07-30T22:04:56.341Z,100604.09
2022-07-30T22:07:27.119Z,100609.09
2022-07-30T22:09:55.285Z,100616.69
2022-07-30T22:12:25.847Z,100606.53
2022-07-30T22:14:57.270Z,100618.44
2022-07-30T22:17:37.266Z,100622.75
2022-07-30T22:20:13.396Z,100622.78
2022-07-30T22:22:41.213Z,100623.91
2022-07-30T22:25:10.719Z,100619.06
2022-07-30T22:27:56.333Z,100625.66
2022-07-30T22:30:27.622Z,100622.63
2022-07-30T22:33:07.175Z,100628.25
2022-07-30T22:35:35.311Z,100632.69
2022-07-30T22:38:07.111Z,100621.94
2022-07-30T22:40:36.385Z,100620.31
2022-07-30T22:43:10.655Z,100619.63
2022-07-30T22:45:48.035Z,100622.19
2022-07-30T22:48:20.425Z,100620.03
2022-07-30T22:50:53.588Z,100612.28
2022-07-30T22:54:03.049Z,100613.47
2022-07-30T22:56:15.478Z,100619.75
2022-07-30T22:59:03.701Z,100615.84
2022-07-30T23:01:32.970Z,100626.31
2022-07-30T23:04:01.495Z,100622.75
2022-07-30T23:06:30.272Z,100622.19
2022-07-30T23:08:58.081Z,100613.28
2022-07-30T23:11:26.422Z,100618.72
2022-07-30T23:12:18.034Z,100549.69
2022-07-30T23:12:19.193Z,100565.13
2022-07-30T23:14:10.067Z,100621.72
2022-07-30T23:16:39.247Z,100611.41
2022-07-30T23:19:07.453Z,100619.88
2022-07-30T23:21:35.409Z,100601.34
2022-07-30T23:24:03.338Z,100612.25
2022-07-30T23:26:31.103Z,100616.94
2022-07-30T23:28:58.951Z,100610.91
2022-07-30T23:31:27.084Z,100605.88
2022-07-30T23:33:55.222Z,100605.59
2022-07-30T23:36:22.960Z,100609.31
2022-07-30T23:38:50.833Z,100617.03
2022-07-30T23:41:30.462Z,100608.56
2022-07-30T23:43:58.744Z,100611.84
2022-07-30T23:46:26.540Z,100621.25
2022-07-30T23:48:54.560Z,100612.78
2022-07-30T23:51:22.369Z,100611.50
2022-07-30T23:53:51.057Z,100616.47
2022-07-30T23:56:21.101Z,100615.16
2022-07-30T23:58:49.055Z,100618.16
